Time;durP1;ratioP1;P1;durP2;ratioP2;P2;SDS_P1;SDS_P2;PMS_P1;PMS_P2;Temp;Humidity;BMP_temperature;BMP_pressure;BME280_temperature;BME280_humidity;BME280_pressure;Samples;Min_cycle;Max_cycle;Signal;HPM_P1;HPM_P2
2022/06/24 00:01:20;;;;;;;0.82;0.68;;;;;;;;;;5016460;28;20112;-76
2022/06/24 00:03:46;;;;;;;0.90;0.85;;;;;;;;;;5026224;28;20045;-76
2022/06/24 00:06:14;;;;;;;0.68;0.60;;;;;;;;;;5015399;28;20153;-75
2022/06/24 00:08:56;;;;;;;2.28;1.52;;;;;;;;;;5015175;28;20091;-75
2022/06/24 00:11:26;;;;;;;5.72;2.35;;;;;;;;;;5017078;28;20026;-75
2022/06/24 00:13:52;;;;;;;1.15;1.08;;;;;;;;;;5026676;28;20351;-75
2022/06/24 00:16:17;;;;;;;1.48;1.25;;;;;;;;;;5007458;28;20041;-75
2022/06/24 00:18:42;;;;;;;1.70;1.10;;;;;;;;;;5019885;28;20069;-75
2022/06/24 00:21:16;;;;;;;1.83;0.90;;;;;;;;;;5015616;28;20033;-76
2022/06/24 00:23:41;;;;;;;1.17;1.08;;;;;;;;;;5016211;28;20033;-76
2022/06/24 00:26:07;;;;;;;2.10;1.23;;;;;;;;;;5016123;28;20188;-76
2022/06/24 00:28:32;;;;;;;1.50;1.40;;;;;;;;;;5020124;28;20160;-76
2022/06/24 00:30:58;;;;;;;0.88;0.82;;;;;;;;;;5025516;28;20017;-76
2022/06/24 00:33:32;;;;;;;1.63;1.08;;;;;;;;;;5014287;28;20168;-75
2022/06/24 00:36:00;;;;;;;2.08;1.05;;;;;;;;;;5016766;28;20022;-76
2022/06/24 00:38:33;;;;;;;2.13;1.25;;;;;;;;;;5021028;28;20025;-76
2022/06/24 00:41:04;;;;;;;1.00;0.95;;;;;;;;;;5016647;28;20054;-76
2022/06/24 00:43:38;;;;;;;1.03;0.77;;;;;;;;;;5016126;28;20064;-76
2022/06/24 00:46:16;;;;;;;1.17;1.08;;;;;;;;;;5023028;28;20749;-76
2022/06/24 00:48:47;;;;;;;3.53;1.45;;;;;;;;;;4988141;28;20057;-76
2022/06/24 00:51:15;;;;;;;1.70;1.15;;;;;;;;;;5010642;28;20367;-76
2022/06/24 00:53:40;;;;;;;0.70;0.60;;;;;;;;;;5016065;28;20014;-76
2022/06/24 00:56:09;;;;;;;2.90;1.25;;;;;;;;;;5014864;28;20446;-76
2022/06/24 00:58:35;;;;;;;0.55;0.55;;;;;;;;;;5023215;28;20021;-75
2022/06/24 01:01:00;;;;;;;1.25;1.15;;;;;;;;;;5026869;28;20902;-74
2022/06/24 01:03:42;;;;;;;1.00;0.70;;;;;;;;;;5016198;28;20507;-75
2022/06/24 01:06:10;;;;;;;1.95;1.15;;;;;;;;;;5020357;28;20108;-76
2022/06/24 01:08:35;;;;;;;2.97;2.03;;;;;;;;;;5028734;28;20113;-76
2022/06/24 01:11:01;;;;;;;1.88;0.95;;;;;;;;;;5014104;28;20118;-75
2022/06/24 01:13:26;;;;;;;2.25;0.95;;;;;;;;;;5019516;28;20053;-75
2022/06/24 01:15:55;;;;;;;1.08;0.80;;;;;;;;;;5024820;28;20037;-75
2022/06/24 01:18:20;;;;;;;1.45;0.80;;;;;;;;;;5032778;28;20025;-75
2022/06/24 01:20:46;;;;;;;1.40;1.30;;;;;;;;;;5015865;28;20105;-74
2022/06/24 01:23:12;;;;;;;1.42;1.33;;;;;;;;;;5016440;28;20029;-74
2022/06/24 01:25:37;;;;;;;0.50;0.50;;;;;;;;;;5011289;28;20026;-75
2022/06/24 01:28:03;;;;;;;0.40;0.40;;;;;;;;;;4996379;28;20026;-75
2022/06/24 01:30:33;;;;;;;3.47;0.95;;;;;;;;;;5014287;28;20105;-75
2022/06/24 01:32:58;;;;;;;4.03;1.52;;;;;;;;;;5016019;28;20087;-75
2022/06/24 01:35:26;;;;;;;0.90;0.82;;;;;;;;;;5014347;28;20030;-75
2022/06/24 01:37:51;;;;;;;2.47;1.85;;;;;;;;;;5018570;28;20050;-75
2022/06/24 01:40:19;;;;;;;4.10;1.27;;;;;;;;;;5022666;28;20064;-75
2022/06/24 01:42:44;;;;;;;1.45;0.90;;;;;;;;;;5014448;28;20355;-75
2022/06/24 01:45:10;;;;;;;3.90;1.48;;;;;;;;;;5015122;28;20029;-75
2022/06/24 01:47:38;;;;;;;1.25;1.13;;;;;;;;;;5035173;28;20339;-75
2022/06/24 01:50:03;;;;;;;1.38;1.27;;;;;;;;;;5035187;28;20108;-75
2022/06/24 01:52:29;;;;;;;5.15;1.45;;;;;;;;;;5015284;28;20108;-75
2022/06/24 01:54:54;;;;;;;2.13;1.30;;;;;;;;;;5012632;28;20438;-74
2022/06/24 01:57:19;;;;;;;1.30;1.17;;;;;;;;;;5014779;28;20465;-75
2022/06/24 01:59:45;;;;;;;3.97;1.30;;;;;;;;;;5034923;28;20033;-75
2022/06/24 02:02:13;;;;;;;4.75;1.83;;;;;;;;;;5011731;28;20041;-74
2022/06/24 02:04:38;;;;;;;14.95;1.42;;;;;;;;;;5019384;28;20021;-75
2022/06/24 02:07:04;;;;;;;4.68;1.45;;;;;;;;;;5028905;28;20395;-74
2022/06/24 02:09:29;;;;;;;2.50;1.10;;;;;;;;;;5035084;28;20068;-74
2022/06/24 02:14:38;;;;;;;1.27;0.90;;;;;;;;;;5019356;28;20617;-75
2022/06/24 02:17:04;;;;;;;0.77;0.50;;;;;;;;;;5014355;28;20033;-75
2022/06/24 02:19:29;;;;;;;2.03;1.60;;;;;;;;;;5017082;28;20033;-74
2022/06/24 02:21:55;;;;;;;1.98;1.55;;;;;;;;;;5017254;28;20048;-74
2022/06/24 02:24:22;;;;;;;1.00;1.00;;;;;;;;;;5014885;28;20506;-74
2022/06/24 02:26:48;;;;;;;1.05;0.82;;;;;;;;;;5028758;28;20026;-74
2022/06/24 02:29:13;;;;;;;3.28;1.88;;;;;;;;;;5018261;28;20030;-74
2022/06/24 02:31:41;;;;;;;0.75;0.70;;;;;;;;;;5014430;28;20034;-75
2022/06/24 02:34:07;;;;;;;1.70;1.38;;;;;;;;;;5014578;28;20026;-75
2022/06/24 02:36:32;;;;;;;1.17;1.00;;;;;;;;;;5018762;28;20080;-75
2022/06/24 02:38:58;;;;;;;1.58;1.30;;;;;;;;;;5014555;28;20510;-74
2022/06/24 02:41:23;;;;;;;1.38;1.27;;;;;;;;;;5014815;28;20451;-74
2022/06/24 02:43:51;;;;;;;3.35;2.03;;;;;;;;;;5015772;28;20073;-75
2022/06/24 02:46:17;;;;;;;5.90;1.45;;;;;;;;;;5032445;28;20051;-75
2022/06/24 02:48:43;;;;;;;2.55;1.10;;;;;;;;;;5030097;28;20439;-75
2022/06/24 02:51:15;;;;;;;1.48;1.17;;;;;;;;;;5014592;28;20049;-75
2022/06/24 02:53:41;;;;;;;4.22;1.75;;;;;;;;;;5005386;28;20025;-75
2022/06/24 02:56:09;;;;;;;1.48;1.27;;;;;;;;;;5033256;28;20074;-75
2022/06/24 02:58:35;;;;;;;11.95;1.40;;;;;;;;;;5003388;28;20079;-74
2022/06/24 03:01:00;;;;;;;2.03;1.10;;;;;;;;;;5021548;28;20029;-74
2022/06/24 03:03:26;;;;;;;0.52;0.52;;;;;;;;;;5004704;28;20019;-76
2022/06/24 03:05:54;;;;;;;3.40;1.67;;;;;;;;;;5000822;28;20049;-75
2022/06/24 03:08:21;;;;;;;0.85;0.70;;;;;;;;;;5014173;28;20474;-75
2022/06/24 03:10:47;;;;;;;1.30;1.17;;;;;;;;;;5018427;28;20033;-75
2022/06/24 03:13:12;;;;;;;1.08;0.98;;;;;;;;;;5023921;28;20030;-75
2022/06/24 03:15:38;;;;;;;4.53;0.88;;;;;;;;;;5015692;28;20045;-74
2022/06/24 03:18:04;;;;;;;2.95;2.22;;;;;;;;;;5013614;28;20030;-74
2022/06/24 03:20:29;;;;;;;1.65;1.15;;;;;;;;;;5014612;28;20034;-74
2022/06/24 03:22:55;;;;;;;4.93;2.17;;;;;;;;;;5015127;28;20092;-74
2022/06/24 03:25:21;;;;;;;2.85;1.92;;;;;;;;;;5015280;28;20121;-74
2022/06/24 03:27:46;;;;;;;0.95;0.95;;;;;;;;;;5013477;28;20034;-74
2022/06/24 03:30:15;;;;;;;1.67;1.20;;;;;;;;;;5014684;28;20053;-74
2022/06/24 03:32:41;;;;;;;2.55;2.13;;;;;;;;;;5029627;28;20025;-74
2022/06/24 03:35:07;;;;;;;1.42;1.30;;;;;;;;;;5014163;28;20109;-75
2022/06/24 03:37:35;;;;;;;8.93;1.17;;;;;;;;;;5032161;28;20090;-74
2022/06/24 03:40:03;;;;;;;1.38;1.27;;;;;;;;;;5014061;28;20041;-74
2022/06/24 03:42:28;;;;;;;2.80;1.88;;;;;;;;;;5014284;28;20109;-76
2022/06/24 03:44:54;;;;;;;2.72;2.22;;;;;;;;;;5033496;28;20113;-74
2022/06/24 03:47:19;;;;;;;1.83;1.50;;;;;;;;;;5018713;28;20140;-75
2022/06/24 03:49:45;;;;;;;1.58;1.15;;;;;;;;;;5017561;28;20036;-75
2022/06/24 03:52:13;;;;;;;5.18;2.28;;;;;;;;;;5016011;28;20029;-75
2022/06/24 03:54:40;;;;;;;2.58;1.20;;;;;;;;;;5031450;28;20057;-74
2022/06/24 03:57:06;;;;;;;1.58;1.25;;;;;;;;;;5023903;28;20451;-75
2022/06/24 03:59:31;;;;;;;4.72;2.45;;;;;;;;;;5016148;28;20099;-75
2022/06/24 04:01:57;;;;;;;7.13;1.42;;;;;;;;;;5016985;28;20030;-74
2022/06/24 04:04:23;;;;;;;3.15;0.98;;;;;;;;;;5015509;28;20120;-75
2022/06/24 04:06:48;;;;;;;4.03;1.70;;;;;;;;;;5015626;28;20113;-74
2022/06/24 04:09:14;;;;;;;0.75;0.75;;;;;;;;;;5015734;28;20040;-75
2022/06/24 04:11:39;;;;;;;1.92;1.65;;;;;;;;;;5018589;28;20061;-75
2022/06/24 04:14:09;;;;;;;2.13;1.73;;;;;;;;;;5017323;28;20450;-75
2022/06/24 04:16:35;;;;;;;1.02;0.85;;;;;;;;;;5024012;28;20025;-75
2022/06/24 04:19:03;;;;;;;1.45;0.90;;;;;;;;;;5021960;28;20028;-75
2022/06/24 04:21:30;;;;;;;1.73;1.52;;;;;;;;;;5016942;28;20473;-75
2022/06/24 04:23:56;;;;;;;1.80;1.52;;;;;;;;;;5024910;28;20449;-74
2022/06/24 04:26:21;;;;;;;0.85;0.85;;;;;;;;;;5015991;28;20045;-75
2022/06/24 04:28:47;;;;;;;4.72;1.15;;;;;;;;;;5016271;28;20423;-75
2022/06/24 04:31:13;;;;;;;0.63;0.63;;;;;;;;;;5025122;28;20029;-75
2022/06/24 04:33:38;;;;;;;2.55;1.63;;;;;;;;;;5018421;28;20022;-75
2022/06/24 04:36:11;;;;;;;1.17;0.88;;;;;;;;;;5012224;28;20018;-74
2022/06/24 04:38:36;;;;;;;4.93;1.75;;;;;;;;;;5013562;28;20030;-75
2022/06/24 04:41:09;;;;;;;1.98;1.55;;;;;;;;;;5015417;28;20110;-75
2022/06/24 04:43:37;;;;;;;1.63;1.25;;;;;;;;;;5014022;28;20438;-74
2022/06/24 04:46:02;;;;;;;1.55;1.45;;;;;;;;;;5008825;28;20038;-74
2022/06/24 04:48:28;;;;;;;1.15;0.90;;;;;;;;;;5007074;28;20033;-76
2022/06/24 04:50:55;;;;;;;3.00;1.58;;;;;;;;;;5015685;28;20061;-75
2022/06/24 04:53:20;;;;;;;1.17;1.10;;;;;;;;;;5016623;28;20320;-75
2022/06/24 04:55:46;;;;;;;1.10;1.00;;;;;;;;;;5016310;28;20025;-75
2022/06/24 04:58:11;;;;;;;1.90;1.60;;;;;;;;;;5014291;28;20030;-74
2022/06/24 05:00:38;;;;;;;1.88;1.63;;;;;;;;;;5023279;28;20036;-75
2022/06/24 05:03:06;;;;;;;2.03;1.83;;;;;;;;;;5018519;28;20034;-74
2022/06/24 05:05:31;;;;;;;1.60;1.13;;;;;;;;;;5018029;28;20030;-75
2022/06/24 05:07:56;;;;;;;5.45;2.97;;;;;;;;;;5015614;28;20025;-75
2022/06/24 05:10:22;;;;;;;2.05;1.77;;;;;;;;;;5013354;28;20529;-75
2022/06/24 05:12:47;;;;;;;2.80;2.38;;;;;;;;;;5017988;28;20462;-74
2022/06/24 05:15:12;;;;;;;2.53;2.33;;;;;;;;;;5014926;28;20029;-74
2022/06/24 05:17:38;;;;;;;3.38;2.08;;;;;;;;;;5015838;28;20105;-75
2022/06/24 05:20:03;;;;;;;2.78;1.58;;;;;;;;;;5016487;28;20049;-74
2022/06/24 05:22:29;;;;;;;2.42;2.15;;;;;;;;;;5015376;28;20025;-74
2022/06/24 05:24:54;;;;;;;1.98;1.33;;;;;;;;;;5014209;28;20448;-74
2022/06/24 05:27:20;;;;;;;1.77;1.67;;;;;;;;;;5015744;28;20458;-75
2022/06/24 05:29:45;;;;;;;2.40;2.20;;;;;;;;;;5016345;28;20351;-74
2022/06/24 05:32:11;;;;;;;1.88;1.42;;;;;;;;;;5030515;28;20025;-74
2022/06/24 05:34:38;;;;;;;2.70;2.30;;;;;;;;;;5014919;28;20521;-75
2022/06/24 05:37:06;;;;;;;1.30;1.20;;;;;;;;;;5011432;28;20032;-74
2022/06/24 05:39:32;;;;;;;2.25;2.05;;;;;;;;;;5008157;28;20045;-74
2022/06/24 05:41:59;;;;;;;3.05;2.45;;;;;;;;;;4997750;28;20026;-75
2022/06/24 05:44:25;;;;;;;2.15;1.92;;;;;;;;;;5014859;28;20402;-74
2022/06/24 05:46:51;;;;;;;4.18;1.83;;;;;;;;;;5014349;28;20088;-77
2022/06/24 05:49:17;;;;;;;3.25;1.65;;;;;;;;;;5015795;28;20025;-77
2022/06/24 05:51:42;;;;;;;2.30;2.10;;;;;;;;;;5014246;28;20040;-77
2022/06/24 05:56:56;;;;;;;5.25;3.28;;;;;;;;;;5013335;28;20343;-79
2022/06/24 05:59:25;;;;;;;2.78;2.35;;;;;;;;;;5013365;28;20155;-78
2022/06/24 06:01:52;;;;;;;2.60;1.73;;;;;;;;;;5017967;28;20025;-76
2022/06/24 06:04:18;;;;;;;1.65;1.38;;;;;;;;;;5013896;28;20747;-77
2022/06/24 06:06:43;;;;;;;3.90;3.33;;;;;;;;;;5013014;28;20021;-76
2022/06/24 06:09:08;;;;;;;1.40;1.30;;;;;;;;;;5014793;28;20025;-77
2022/06/24 06:11:34;;;;;;;3.03;1.80;;;;;;;;;;5014254;28;20474;-77
2022/06/24 06:13:59;;;;;;;1.70;1.60;;;;;;;;;;5016194;28;20040;-77
2022/06/24 06:16:27;;;;;;;3.10;2.80;;;;;;;;;;5013633;28;20034;-76
2022/06/24 06:18:53;;;;;;;1.50;1.35;;;;;;;;;;5013531;28;20044;-77
2022/06/24 06:21:21;;;;;;;3.03;2.72;;;;;;;;;;5010627;28;20025;-77
2022/06/24 06:23:47;;;;;;;2.72;2.38;;;;;;;;;;5013376;28;20118;-78
2022/06/24 06:26:14;;;;;;;3.03;2.58;;;;;;;;;;5017930;28;20415;-79
2022/06/24 06:28:42;;;;;;;1.60;1.50;;;;;;;;;;5014576;28;20041;-78
2022/06/24 06:31:09;;;;;;;2.38;2.17;;;;;;;;;;5020711;28;20029;-77
2022/06/24 06:33:34;;;;;;;2.13;1.92;;;;;;;;;;5001337;28;20029;-77
2022/06/24 06:36:05;;;;;;;2.40;1.10;;;;;;;;;;5012353;28;20083;-78
2022/06/24 06:38:30;;;;;;;0.30;0.30;;;;;;;;;;5005466;28;20519;-77
2022/06/24 06:40:56;;;;;;;1.42;1.00;;;;;;;;;;5012453;28;20109;-77
2022/06/24 06:43:21;;;;;;;1.27;1.15;;;;;;;;;;5013438;28;20025;-78
2022/06/24 06:45:46;;;;;;;0.50;0.50;;;;;;;;;;5015289;28;20045;-78
2022/06/24 06:48:12;;;;;;;2.05;0.32;;;;;;;;;;4997057;28;20065;-78
2022/06/24 06:50:37;;;;;;;1.13;0.65;;;;;;;;;;5014338;28;20030;-79
2022/06/24 06:53:03;;;;;;;1.00;0.90;;;;;;;;;;5016124;28;20026;-77
2022/06/24 06:55:29;;;;;;;1.75;1.25;;;;;;;;;;5019390;28;20033;-78
2022/06/24 06:57:56;;;;;;;0.45;0.38;;;;;;;;;;4993466;28;20041;-79
2022/06/24 07:00:22;;;;;;;0.43;0.20;;;;;;;;;;5009804;28;20451;-80
2022/06/24 07:02:47;;;;;;;0.28;0.28;;;;;;;;;;5013639;28;20083;-79
2022/06/24 07:05:32;;;;;;;0.40;0.40;;;;;;;;;;5011537;28;20466;-80
2022/06/24 07:08:00;;;;;;;0.20;0.20;;;;;;;;;;5018307;28;20505;-79
2022/06/24 07:10:28;;;;;;;1.30;0.77;;;;;;;;;;5016540;28;20034;-79
2022/06/24 07:12:53;;;;;;;0.63;0.63;;;;;;;;;;5014378;28;20045;-79
2022/06/24 07:15:19;;;;;;;0.22;0.22;;;;;;;;;;5012240;28;20451;-79
2022/06/24 07:17:47;;;;;;;0.30;0.20;;;;;;;;;;5015406;28;20336;-79
2022/06/24 07:20:12;;;;;;;0.85;0.75;;;;;;;;;;5015601;28;20499;-80
2022/06/24 07:22:39;;;;;;;0.90;0.60;;;;;;;;;;5015956;28;20180;-80
2022/06/24 07:25:05;;;;;;;0.45;0.22;;;;;;;;;;5017273;28;20034;-79
2022/06/24 07:27:30;;;;;;;1.50;0.77;;;;;;;;;;5026403;28;20541;-80
2022/06/24 07:29:56;;;;;;;0.25;0.25;;;;;;;;;;5018898;28;20026;-79
2022/06/24 07:32:21;;;;;;;1.05;0.80;;;;;;;;;;5017247;28;20566;-78
2022/06/24 07:34:46;;;;;;;0.85;0.73;;;;;;;;;;5015775;28;20032;-79
2022/06/24 07:37:12;;;;;;;0.85;0.63;;;;;;;;;;5017876;28;20432;-78
2022/06/24 07:39:38;;;;;;;0.10;0.10;;;;;;;;;;5017570;28;20477;-79
2022/06/24 07:42:04;;;;;;;0.30;0.30;;;;;;;;;;5015956;28;20076;-79
2022/06/24 07:44:30;;;;;;;0.45;0.20;;;;;;;;;;5016477;28;20117;-78
2022/06/24 07:46:57;;;;;;;0.25;0.25;;;;;;;;;;5016743;28;20100;-79
2022/06/24 07:49:22;;;;;;;0.10;0.10;;;;;;;;;;5018683;28;20034;-79
2022/06/24 07:51:59;;;;;;;0.30;0.30;;;;;;;;;;5013001;28;20344;-80
2022/06/24 07:54:24;;;;;;;0.30;0.30;;;;;;;;;;5009478;28;20132;-79
2022/06/24 07:57:05;;;;;;;0.40;0.20;;;;;;;;;;5014882;28;20459;-78
2022/06/24 07:59:45;;;;;;;0.65;0.30;;;;;;;;;;5018043;28;20124;-78
2022/06/24 08:02:10;;;;;;;2.42;0.25;;;;;;;;;;4994163;28;20045;-78
2022/06/24 08:04:36;;;;;;;0.68;0.32;;;;;;;;;;5014720;28;20034;-78
2022/06/24 08:07:06;;;;;;;1.55;1.30;;;;;;;;;;5017375;28;20029;-79
2022/06/24 08:09:32;;;;;;;0.85;0.63;;;;;;;;;;5016269;28;20458;-78
2022/06/24 08:11:58;;;;;;;0.90;0.75;;;;;;;;;;5015059;28;20080;-78
2022/06/24 08:14:24;;;;;;;0.52;0.52;;;;;;;;;;5029500;28;20023;-78
2022/06/24 08:16:50;;;;;;;6.35;1.40;;;;;;;;;;4997368;28;20068;-78
2022/06/24 08:19:15;;;;;;;0.90;0.50;;;;;;;;;;5007220;28;20085;-78
2022/06/24 08:21:43;;;;;;;2.40;0.93;;;;;;;;;;5014510;28;20112;-78
2022/06/24 08:24:10;;;;;;;0.32;0.32;;;;;;;;;;5016825;28;20354;-77
2022/06/24 08:26:38;;;;;;;0.52;0.52;;;;;;;;;;5023846;28;20025;-78
2022/06/24 08:29:03;;;;;;;2.00;1.55;;;;;;;;;;5015719;28;20168;-79
2022/06/24 08:31:29;;;;;;;1.65;0.60;;;;;;;;;;5016709;28;20112;-78
2022/06/24 08:33:54;;;;;;;0.30;0.30;;;;;;;;;;5016831;28;20029;-78
2022/06/24 08:36:24;;;;;;;0.20;0.10;;;;;;;;;;5014656;28;20041;-78
2022/06/24 08:38:49;;;;;;;0.10;0.08;;;;;;;;;;5015505;28;20037;-78
2022/06/24 08:41:20;;;;;;;0.35;0.35;;;;;;;;;;5015604;28;20340;-78
2022/06/24 08:43:47;;;;;;;0.10;0.10;;;;;;;;;;5016836;28;20367;-77
2022/06/24 08:46:13;;;;;;;0.57;0.30;;;;;;;;;;5014692;28;20397;-77
2022/06/24 08:48:38;;;;;;;0.52;0.52;;;;;;;;;;5006433;28;20021;-77
2022/06/24 08:51:05;;;;;;;0.15;0.03;;;;;;;;;;5007214;28;20352;-77
2022/06/24 08:53:33;;;;;;;0.77;0.40;;;;;;;;;;5014716;28;20113;-78
2022/06/24 08:56:01;;;;;;;0.40;0.30;;;;;;;;;;4996802;28;20030;-78
2022/06/24 08:58:26;;;;;;;0.00;0.00;;;;;;;;;;5010655;28;20084;-79
2022/06/24 09:00:54;;;;;;;0.20;0.20;;;;;;;;;;5016175;28;20025;-78
2022/06/24 09:03:20;;;;;;;0.30;0.30;;;;;;;;;;5015501;28;20400;-78
2022/06/24 09:05:45;;;;;;;0.75;0.55;;;;;;;;;;5016249;28;20062;-78
2022/06/24 09:08:13;;;;;;;0.52;0.17;;;;;;;;;;5015658;28;20022;-78
2022/06/24 09:11:06;;;;;;;0.50;0.50;;;;;;;;;;5015459;28;20034;-78
2022/06/24 09:13:41;;;;;;;0.20;0.20;;;;;;;;;;5015215;28;20108;-78
2022/06/24 09:16:12;;;;;;;0.20;0.20;;;;;;;;;;5017146;28;20026;-78
2022/06/24 09:18:40;;;;;;;1.55;0.30;;;;;;;;;;5013829;28;20470;-78
2022/06/24 09:21:08;;;;;;;0.30;0.30;;;;;;;;;;5013494;28;20030;-77
2022/06/24 09:24:00;;;;;;;0.40;0.40;;;;;;;;;;5015971;28;20030;-80
2022/06/24 09:26:33;;;;;;;1.25;0.60;;;;;;;;;;5015136;28;20044;-78
2022/06/24 09:29:14;;;;;;;0.75;0.50;;;;;;;;;;5013793;28;20034;-79
2022/06/24 09:31:40;;;;;;;0.20;0.20;;;;;;;;;;5014913;28;20030;-79
2022/06/24 09:34:17;;;;;;;1.35;0.57;;;;;;;;;;4998770;28;20018;-79
2022/06/24 09:36:45;;;;;;;1.73;1.15;;;;;;;;;;5012625;28;20064;-80
2022/06/24 09:39:15;;;;;;;0.70;0.65;;;;;;;;;;5012368;28;20029;-79
2022/06/24 09:41:46;;;;;;;0.85;0.73;;;;;;;;;;5000134;28;20021;-77
2022/06/24 09:44:12;;;;;;;1.15;1.00;;;;;;;;;;5014912;28;20495;-79
2022/06/24 09:46:38;;;;;;;0.52;0.52;;;;;;;;;;5014107;28;20393;-79
2022/06/24 09:49:05;;;;;;;2.50;0.80;;;;;;;;;;5014262;28;20025;-78
2022/06/24 09:51:31;;;;;;;0.57;0.57;;;;;;;;;;5011720;28;20451;-79
2022/06/24 09:54:00;;;;;;;1.42;1.00;;;;;;;;;;5014164;28;20057;-80
2022/06/24 09:56:29;;;;;;;2.05;1.17;;;;;;;;;;5013973;28;20026;-79
2022/06/24 10:01:41;;;;;;;1.00;0.95;;;;;;;;;;5010539;28;20041;-81
2022/06/24 10:04:30;;;;;;;0.75;0.75;;;;;;;;;;5034939;28;20029;-81
2022/06/24 10:06:56;;;;;;;1.17;0.82;;;;;;;;;;5010461;28;20040;-78
2022/06/24 10:09:25;;;;;;;0.70;0.70;;;;;;;;;;5014221;28;20026;-81
2022/06/24 10:11:51;;;;;;;1.75;1.10;;;;;;;;;;5014176;28;20032;-81
2022/06/24 10:14:18;;;;;;;3.92;1.15;;;;;;;;;;5015013;28;20026;-81
2022/06/24 10:16:47;;;;;;;2.70;1.10;;;;;;;;;;5012979;28;20041;-80
2022/06/24 10:19:13;;;;;;;2.88;2.33;;;;;;;;;;5013284;28;20030;-81
2022/06/24 10:21:39;;;;;;;2.08;1.20;;;;;;;;;;5014938;28;20037;-81
2022/06/24 10:24:20;;;;;;;2.63;1.60;;;;;;;;;;5013940;28;20108;-86
2022/06/24 10:26:48;;;;;;;1.05;0.93;;;;;;;;;;5014220;28;20018;-82
2022/06/24 10:29:13;;;;;;;2.88;1.77;;;;;;;;;;5010377;28;20340;-78
2022/06/24 10:31:41;;;;;;;1.30;1.20;;;;;;;;;;5020683;28;20022;-83
2022/06/24 10:34:20;;;;;;;5.72;2.20;;;;;;;;;;5016705;28;20104;-85
2022/06/24 10:36:49;;;;;;;1.27;1.17;;;;;;;;;;5026274;28;20061;-89
2022/06/24 10:39:22;;;;;;;1.33;1.20;;;;;;;;;;5021290;28;20034;-88
2022/06/24 10:41:58;;;;;;;2.10;1.30;;;;;;;;;;5027963;28;20159;-85
2022/06/24 10:44:26;;;;;;;1.23;0.73;;;;;;;;;;5012113;28;20142;-84
2022/06/24 10:47:04;;;;;;;0.82;0.82;;;;;;;;;;5012433;28;20026;-83
2022/06/24 10:49:51;;;;;;;1.45;1.25;;;;;;;;;;5017375;28;20045;-82
2022/06/24 10:55:53;;;;;;;1.50;1.05;;;;;;;;;;5010273;28;20115;-84
2022/06/24 10:58:19;;;;;;;2.88;1.55;;;;;;;;;;5011249;28;20459;-83
2022/06/24 11:00:51;;;;;;;0.80;0.80;;;;;;;;;;5011209;28;20040;-83
2022/06/24 11:03:24;;;;;;;0.25;0.25;;;;;;;;;;5009262;28;20029;-84
2022/06/24 11:05:51;;;;;;;0.68;0.68;;;;;;;;;;5005180;28;20030;-83
2022/06/24 11:08:21;;;;;;;1.98;1.08;;;;;;;;;;5008960;28;20029;-85
2022/06/24 11:10:50;;;;;;;2.63;1.95;;;;;;;;;;5004939;28;20105;-82
2022/06/24 11:13:18;;;;;;;0.93;0.82;;;;;;;;;;5014059;28;20054;-81
2022/06/24 11:15:54;;;;;;;1.35;0.85;;;;;;;;;;5008306;28;20036;-81
2022/06/24 11:18:27;;;;;;;1.02;0.82;;;;;;;;;;5008056;28;20368;-83
2022/06/24 11:20:59;;;;;;;1.60;0.75;;;;;;;;;;5012528;28;20017;-84
2022/06/24 11:23:26;;;;;;;0.47;0.47;;;;;;;;;;5013323;28;20084;-83
2022/06/24 11:25:56;;;;;;;0.73;0.40;;;;;;;;;;4988490;28;20096;-83
2022/06/24 11:28:25;;;;;;;0.47;0.47;;;;;;;;;;4990348;28;20023;-82
2022/06/24 11:30:52;;;;;;;0.40;0.40;;;;;;;;;;5013991;28;20097;-79
2022/06/24 11:33:20;;;;;;;0.68;0.68;;;;;;;;;;5026458;28;20469;-80
2022/06/24 11:35:47;;;;;;;1.23;1.10;;;;;;;;;;5008858;28;20044;-79
2022/06/24 11:38:15;;;;;;;0.28;0.28;;;;;;;;;;5012549;28;20033;-79
2022/06/24 11:40:45;;;;;;;0.70;0.60;;;;;;;;;;4987456;28;20108;-80
2022/06/24 11:43:17;;;;;;;1.88;0.93;;;;;;;;;;5010326;28;20032;-80
2022/06/24 11:45:49;;;;;;;;;;;;;;;;;;5004423;28;20108;-81
2022/06/24 11:48:21;;;;;;;1.20;0.40;;;;;;;;;;4996234;28;20472;-81
2022/06/24 11:50:53;;;;;;;1.60;1.23;;;;;;;;;;5009489;28;20018;-81
2022/06/24 11:53:24;;;;;;;0.52;0.40;;;;;;;;;;4997306;28;20103;-80
2022/06/24 11:55:54;;;;;;;1.20;0.95;;;;;;;;;;5011557;28;20029;-80
2022/06/24 11:58:23;;;;;;;1.10;1.00;;;;;;;;;;5011067;28;20034;-83
2022/06/24 12:00:55;;;;;;;1.17;1.08;;;;;;;;;;4996320;28;20017;-81
2022/06/24 12:03:28;;;;;;;;;;;;;;;;;;5001625;28;20059;-81
2022/06/24 12:05:56;;;;;;;2.70;1.45;;;;;;;;;;5015488;28;19917;-82
2022/06/24 12:08:25;;;;;;;0.85;0.63;;;;;;;;;;5004669;28;20081;-81
2022/06/24 12:10:57;;;;;;;0.28;0.28;;;;;;;;;;5014781;28;20030;-83
2022/06/24 12:13:32;;;;;;;1.35;1.02;;;;;;;;;;5016732;28;20033;-83
2022/06/24 12:15:58;;;;;;;10.10;0.77;;;;;;;;;;5010082;28;20026;-83
2022/06/24 12:18:50;;;;;;;1.15;0.77;;;;;;;;;;5015116;28;20029;-83
2022/06/24 12:21:30;;;;;;;1.63;1.13;;;;;;;;;;4975544;28;20034;-81
2022/06/24 12:23:55;;;;;;;2.17;0.55;;;;;;;;;;4954745;28;20063;-83
2022/06/24 12:26:24;;;;;;;0.88;0.88;;;;;;;;;;4955998;28;20098;-81
2022/06/24 12:29:01;;;;;;;1.25;0.95;;;;;;;;;;4975823;28;20034;-84
2022/06/24 12:31:27;;;;;;;0.80;0.80;;;;;;;;;;4957351;28;20114;-84
2022/06/24 12:33:54;;;;;;;1.10;0.82;;;;;;;;;;4959270;28;20039;-84
2022/06/24 12:36:24;;;;;;;1.17;1.00;;;;;;;;;;4975153;28;20058;-84
2022/06/24 12:39:05;;;;;;;1.00;0.88;;;;;;;;;;4975690;28;20058;-86
2022/06/24 12:41:44;;;;;;;2.47;1.60;;;;;;;;;;4958979;28;20611;-78
2022/06/24 12:44:09;;;;;;;1.42;0.77;;;;;;;;;;4930776;29;20043;-81
2022/06/24 12:46:35;;;;;;;2.22;1.70;;;;;;;;;;4971028;28;20170;-78
2022/06/24 12:52:02;;;;;;;0.93;0.60;;;;;;;;;;4975068;28;20551;-82
2022/06/24 12:54:29;;;;;;;1.10;1.00;;;;;;;;;;4957667;28;20035;-84
2022/06/24 12:56:57;;;;;;;0.98;0.82;;;;;;;;;;4975292;28;20062;-87
2022/06/24 12:59:29;;;;;;;0.55;0.55;;;;;;;;;;5004271;28;20045;-80
2022/06/24 13:01:55;;;;;;;0.52;0.50;;;;;;;;;;5011957;28;20114;-80
2022/06/24 13:04:20;;;;;;;0.82;0.80;;;;;;;;;;5009998;28;20428;-80
2022/06/24 13:06:45;;;;;;;0.75;0.65;;;;;;;;;;5012105;28;20113;-82
2022/06/24 13:09:11;;;;;;;1.23;1.05;;;;;;;;;;5009305;28;20049;-83
2022/06/24 13:11:36;;;;;;;0.70;0.60;;;;;;;;;;5015582;28;20064;-83
2022/06/24 13:14:03;;;;;;;1.17;0.75;;;;;;;;;;5013360;28;20095;-81
2022/06/24 13:16:28;;;;;;;1.23;1.00;;;;;;;;;;5014723;28;20022;-81
2022/06/24 13:18:54;;;;;;;10.07;0.88;;;;;;;;;;5013260;28;20040;-82
2022/06/24 13:21:22;;;;;;;0.52;0.52;;;;;;;;;;5013148;28;20052;-82
2022/06/24 13:23:48;;;;;;;0.60;0.40;;;;;;;;;;5008728;28;20044;-80
2022/06/24 13:26:17;;;;;;;1.38;0.70;;;;;;;;;;5013816;28;20030;-82
2022/06/24 13:28:42;;;;;;;0.52;0.50;;;;;;;;;;5023321;28;20017;-82
2022/06/24 13:31:09;;;;;;;1.17;0.88;;;;;;;;;;5019838;28;20046;-82
2022/06/24 13:33:37;;;;;;;1.13;1.00;;;;;;;;;;5023525;28;20048;-89
2022/06/24 13:36:02;;;;;;;0.55;0.55;;;;;;;;;;5021915;28;20061;-83
2022/06/24 13:38:30;;;;;;;7.18;0.68;;;;;;;;;;5022871;28;20049;-90
2022/06/24 13:40:55;;;;;;;0.90;0.90;;;;;;;;;;5024850;28;20034;-87
2022/06/24 13:43:21;;;;;;;0.93;0.93;;;;;;;;;;5024618;28;20028;-89
2022/06/24 13:45:47;;;;;;;1.27;0.50;;;;;;;;;;5024928;28;20579;-89
2022/06/24 13:48:15;;;;;;;5.05;1.85;;;;;;;;;;5008613;28;20032;-85
2022/06/24 13:50:41;;;;;;;0.88;0.40;;;;;;;;;;5029018;28;20116;-87
2022/06/24 13:53:07;;;;;;;1.00;0.45;;;;;;;;;;5023079;28;20134;-87
2022/06/24 13:55:32;;;;;;;0.20;0.20;;;;;;;;;;5022910;28;20329;-83
2022/06/24 13:57:58;;;;;;;0.40;0.40;;;;;;;;;;5000277;28;20042;-83
2022/06/24 14:00:23;;;;;;;2.38;0.93;;;;;;;;;;5023526;28;20028;-83
2022/06/24 14:02:51;;;;;;;20.52;1.75;;;;;;;;;;5027435;28;20104;-82
2022/06/24 14:05:16;;;;;;;0.52;0.52;;;;;;;;;;5022862;28;20438;-84
2022/06/24 14:07:42;;;;;;;0.70;0.57;;;;;;;;;;5024373;28;20057;-84
2022/06/24 14:10:07;;;;;;;0.55;0.50;;;;;;;;;;5026308;28;20029;-84
2022/06/24 14:12:33;;;;;;;0.85;0.85;;;;;;;;;;5014952;28;20462;-82
2022/06/24 14:14:59;;;;;;;6.32;1.30;;;;;;;;;;4994492;28;20105;-84
2022/06/24 14:17:24;;;;;;;0.85;0.73;;;;;;;;;;5019823;28;20025;-85
2022/06/24 14:19:52;;;;;;;1.30;0.85;;;;;;;;;;5022660;28;20028;-82
2022/06/24 14:22:17;;;;;;;1.02;0.50;;;;;;;;;;5030922;28;20025;-79
2022/06/24 14:24:46;;;;;;;3.08;1.27;;;;;;;;;;5020505;28;20439;-84
2022/06/24 14:27:11;;;;;;;1.48;1.00;;;;;;;;;;5019386;28;20028;-82
2022/06/24 14:29:38;;;;;;;0.70;0.68;;;;;;;;;;5022346;28;20350;-83
2022/06/24 14:32:06;;;;;;;5.63;1.83;;;;;;;;;;5023456;28;20029;-83
2022/06/24 14:34:32;;;;;;;1.50;1.17;;;;;;;;;;5017976;28;20087;-86
2022/06/24 14:36:58;;;;;;;0.85;0.73;;;;;;;;;;5014913;28;20375;-82
2022/06/24 14:42:08;;;;;;;2.05;1.00;;;;;;;;;;5014460;28;20370;-89
2022/06/24 14:44:34;;;;;;;1.38;0.98;;;;;;;;;;5011648;28;20096;-81
2022/06/24 14:47:02;;;;;;;1.08;0.70;;;;;;;;;;5017472;28;20027;-81
2022/06/24 14:49:28;;;;;;;1.08;0.98;;;;;;;;;;5011671;28;20080;-82
2022/06/24 14:51:58;;;;;;;0.75;0.75;;;;;;;;;;5015332;28;20037;-82
2022/06/24 14:54:24;;;;;;;1.33;1.10;;;;;;;;;;5023872;28;20029;-86
2022/06/24 14:56:52;;;;;;;0.98;0.90;;;;;;;;;;5013263;28;20045;-85
2022/06/24 14:59:17;;;;;;;0.98;0.88;;;;;;;;;;5012518;28;20021;-82
2022/06/24 15:01:42;;;;;;;0.95;0.90;;;;;;;;;;5011464;28;20040;-81
2022/06/24 15:04:10;;;;;;;0.60;0.60;;;;;;;;;;5011776;28;20077;-82